createdAt,value
2018-02-24T00:00:49.737Z,20.55
2018-02-24T00:03:18.610Z,22.50
2018-02-24T00:05:47.453Z,20.80
2018-02-24T00:08:16.265Z,19.55
2018-02-24T00:10:45.149Z,23.58
2018-02-24T00:13:13.988Z,23.90
2018-02-24T00:15:42.839Z,28.95
2018-02-24T00:18:11.653Z,22.40
2018-02-24T00:20:40.544Z,20.90
2018-02-24T00:23:09.476Z,21.70
2018-02-24T00:25:38.321Z,20.45
2018-02-24T00:28:07.154Z,20.70
2018-02-24T00:30:36.016Z,20.45
2018-02-24T00:33:04.870Z,19.17
2018-02-24T00:35:33.699Z,18.23
2018-02-24T00:38:02.538Z,17.87
2018-02-24T00:40:31.355Z,17.45
2018-02-24T00:43:00.656Z,17.90
2018-02-24T00:45:29.555Z,19.15
2018-02-24T00:47:58.375Z,18.67
2018-02-24T00:50:27.223Z,18.52
2018-02-24T00:52:56.094Z,18.73
2018-02-24T00:55:24.906Z,17.65
2018-02-24T00:57:53.757Z,18.70
2018-02-24T01:00:22.631Z,19.12
2018-02-24T01:02:51.473Z,19.12
2018-02-24T01:05:20.329Z,19.35
2018-02-24T01:07:49.155Z,19.10
2018-02-24T01:10:17.991Z,18.80
2018-02-24T01:12:46.817Z,18.15
2018-02-24T01:15:15.679Z,18.75
2018-02-24T01:17:44.501Z,18.15
2018-02-24T01:20:13.315Z,18.42
2018-02-24T01:22:42.161Z,19.40
2018-02-24T01:25:10.980Z,18.23
2018-02-24T01:27:39.820Z,19.05
2018-02-24T01:30:08.651Z,18.40
2018-02-24T01:32:37.549Z,17.30
2018-02-24T01:35:06.397Z,19.00
2018-02-24T01:37:35.218Z,18.05
2018-02-24T01:40:04.078Z,18.35
2018-02-24T01:42:32.885Z,18.77
2018-02-24T01:45:01.743Z,17.40
2018-02-24T01:47:30.941Z,17.90
2018-02-24T01:49:59.773Z,17.65
2018-02-24T01:52:28.715Z,18.80
2018-02-24T01:54:57.563Z,17.85
2018-02-24T01:57:26.381Z,17.40
2018-02-24T01:59:55.244Z,17.75
2018-02-24T02:02:24.119Z,18.87
2018-02-24T02:04:53.007Z,17.67
2018-02-24T02:07:21.860Z,18.42
2018-02-24T02:09:50.696Z,16.55
2018-02-24T02:12:19.573Z,17.40
2018-02-24T02:14:48.388Z,18.42
2018-02-24T02:17:17.221Z,18.95
2018-02-24T02:19:46.061Z,17.62
2018-02-24T02:22:14.912Z,18.17
2018-02-24T02:24:43.725Z,17.92
2018-02-24T02:27:12.533Z,18.33
2018-02-24T02:29:41.385Z,17.55
2018-02-24T02:32:10.204Z,18.58
2018-02-24T02:34:39.197Z,17.45
2018-02-24T02:37:08.052Z,17.42
2018-02-24T02:39:36.885Z,16.65
2018-02-24T02:42:05.774Z,17.95
2018-02-24T02:44:34.594Z,16.60
2018-02-24T02:47:03.485Z,17.83
2018-02-24T02:49:32.341Z,17.67
2018-02-24T02:52:01.194Z,17.45
2018-02-24T02:54:30.038Z,17.90
2018-02-24T02:56:58.869Z,16.40
2018-02-24T02:59:27.717Z,18.08
2018-02-24T03:01:56.602Z,18.08
2018-02-24T03:04:25.473Z,17.87
2018-02-24T03:06:54.304Z,18.30
2018-02-24T03:09:23.182Z,19.30
2018-02-24T03:11:52.063Z,17.62
2018-02-24T03:14:20.918Z,16.48
2018-02-24T03:16:49.750Z,17.83
2018-02-24T03:19:18.555Z,17.67
2018-02-24T03:21:47.396Z,18.05
2018-02-24T03:24:16.290Z,16.83
2018-02-24T03:26:45.139Z,17.23
2018-02-24T03:29:14.002Z,18.77
2018-02-24T03:31:42.802Z,18.33
2018-02-24T03:34:11.638Z,17.35
2018-02-24T03:36:40.560Z,18.55
2018-02-24T03:39:09.379Z,16.85
2018-02-24T03:41:38.368Z,18.08
2018-02-24T03:44:07.193Z,17.65
2018-02-24T03:46:36.028Z,17.77
2018-02-24T03:49:04.910Z,17.67
2018-02-24T03:51:33.737Z,17.77
2018-02-24T03:54:02.616Z,17.87
2018-02-24T03:56:31.477Z,17.75
2018-02-24T03:59:00.316Z,17.80
2018-02-24T04:01:29.129Z,16.87
2018-02-24T04:03:57.978Z,19.62
2018-02-24T04:06:26.850Z,19.17
2018-02-24T04:08:55.677Z,18.85
2018-02-24T04:11:24.510Z,21.42
2018-02-24T04:13:53.486Z,19.73
2018-02-24T04:16:22.378Z,21.10
2018-02-24T04:18:51.153Z,19.48
2018-02-24T04:21:20.032Z,20.10
2018-02-24T04:23:48.865Z,19.65
2018-02-24T04:26:17.671Z,18.87
2018-02-24T04:28:46.510Z,20.17
2018-02-24T04:31:15.384Z,20.05
2018-02-24T04:33:44.329Z,19.02
2018-02-24T04:36:13.172Z,20.37
2018-02-24T04:38:42.028Z,19.00
2018-02-24T04:41:10.879Z,20.02
2018-02-24T04:43:39.798Z,19.67
2018-02-24T04:46:08.604Z,19.77
2018-02-24T04:48:37.485Z,20.62
2018-02-24T04:51:06.345Z,18.08
2018-02-24T04:53:35.160Z,19.52
2018-02-24T04:56:04.000Z,19.70
2018-02-24T04:58:32.827Z,19.52
2018-02-24T05:01:02.525Z,21.08
2018-02-24T05:03:31.334Z,20.30
2018-02-24T05:06:00.196Z,21.90
2018-02-24T05:08:29.049Z,20.40
2018-02-24T05:10:57.860Z,20.37
2018-02-24T05:13:26.689Z,18.87
2018-02-24T05:15:55.516Z,20.00
2018-02-24T05:18:24.345Z,22.33
2018-02-24T05:20:53.149Z,19.73
2018-02-24T05:23:21.995Z,21.62
2018-02-24T05:25:50.830Z,20.77
2018-02-24T05:28:19.732Z,19.85
2018-02-24T05:30:48.573Z,19.77
2018-02-24T05:33:17.408Z,20.45
2018-02-24T05:35:46.233Z,20.98
2018-02-24T05:38:15.348Z,19.98
2018-02-24T05:40:44.158Z,20.75
2018-02-24T05:43:12.973Z,22.85
2018-02-24T05:45:41.813Z,19.67
2018-02-24T05:48:10.620Z,20.92
2018-02-24T05:50:39.471Z,21.17
2018-02-24T05:53:08.299Z,20.08
2018-02-24T05:55:37.148Z,20.08
2018-02-24T05:58:05.967Z,20.95
2018-02-24T06:00:34.819Z,19.98
2018-02-24T06:03:03.703Z,20.27
2018-02-24T06:05:32.749Z,20.48
2018-02-24T06:08:01.584Z,20.70
2018-02-24T06:10:30.388Z,20.98
2018-02-24T06:12:59.295Z,22.33
2018-02-24T06:15:28.145Z,22.10
2018-02-24T06:17:56.996Z,22.40
2018-02-24T06:20:25.817Z,20.88
2018-02-24T06:22:54.710Z,22.00
2018-02-24T06:25:23.524Z,22.60
2018-02-24T06:27:52.399Z,22.70
2018-02-24T06:30:21.240Z,21.45
2018-02-24T06:32:50.070Z,21.17
2018-02-24T06:35:18.920Z,23.10
2018-02-24T06:37:47.738Z,21.75
2018-02-24T06:40:16.573Z,21.60
2018-02-24T06:42:45.571Z,19.62
2018-02-24T06:45:14.413Z,20.42
2018-02-24T06:47:43.274Z,20.88
2018-02-24T06:50:12.121Z,20.98
2018-02-24T06:52:41.005Z,20.30
2018-02-24T06:55:09.820Z,20.30
2018-02-24T06:57:38.654Z,20.17
2018-02-24T07:00:07.468Z,22.10
2018-02-24T07:02:36.337Z,20.65
2018-02-24T07:05:05.155Z,20.40
2018-02-24T07:07:34.009Z,20.52
2018-02-24T07:10:02.870Z,18.75
2018-02-24T07:12:31.694Z,19.95
2018-02-24T07:15:00.589Z,20.25
2018-02-24T07:17:29.401Z,21.33
2018-02-24T07:19:58.232Z,20.98
2018-02-24T07:22:27.074Z,21.92
2018-02-24T07:24:55.969Z,20.73
2018-02-24T07:27:24.798Z,21.33
2018-02-24T07:29:53.666Z,24.15
2018-02-24T07:32:22.532Z,20.95
2018-02-24T07:34:51.370Z,21.02
2018-02-24T07:37:20.174Z,19.73
2018-02-24T07:39:49.021Z,20.05
2018-02-24T07:42:17.890Z,19.95
2018-02-24T07:44:46.718Z,18.45
2018-02-24T07:47:15.671Z,19.48
2018-02-24T07:49:44.530Z,19.45
2018-02-24T07:52:13.340Z,19.35
2018-02-24T07:54:42.151Z,19.20
2018-02-24T07:57:11.011Z,19.10
2018-02-24T07:59:39.836Z,18.90
2018-02-24T08:02:08.682Z,19.87
2018-02-24T08:04:37.506Z,19.30
2018-02-24T08:07:06.407Z,19.70
2018-02-24T08:09:35.241Z,19.87
2018-02-24T08:12:04.045Z,18.80
2018-02-24T08:14:32.921Z,18.48
2018-02-24T08:17:01.760Z,18.58
2018-02-24T08:19:30.621Z,19.75
2018-02-24T08:21:59.506Z,18.95
2018-02-24T08:24:28.326Z,19.50
2018-02-24T08:26:57.203Z,20.12
2018-02-24T08:29:26.078Z,19.65
2018-02-24T08:31:54.923Z,18.75
2018-02-24T08:34:23.780Z,19.00
2018-02-24T08:36:52.612Z,21.00
2018-02-24T08:39:21.459Z,19.60
2018-02-24T08:41:50.271Z,18.30
2018-02-24T08:44:19.108Z,19.98
2018-02-24T08:46:47.946Z,18.77
2018-02-24T08:49:16.798Z,18.25
2018-02-24T08:51:45.658Z,18.40
2018-02-24T08:54:14.493Z,22.77
2018-02-24T08:56:43.330Z,19.00
2018-02-24T08:59:12.205Z,18.35
2018-02-24T09:01:41.030Z,18.25
2018-02-24T09:04:09.919Z,18.77
2018-02-24T09:06:38.756Z,19.10
2018-02-24T09:09:07.634Z,27.10
2018-02-24T09:11:36.470Z,16.87
2018-02-24T09:14:05.329Z,16.50
2018-02-24T09:16:34.137Z,16.83
2018-02-24T09:19:03.049Z,16.27
2018-02-24T09:21:31.839Z,16.73
2018-02-24T09:24:00.719Z,15.60
2018-02-24T09:26:29.581Z,15.70
2018-02-24T09:28:58.426Z,15.82
2018-02-24T09:31:27.270Z,15.40
2018-02-24T09:33:56.093Z,15.18
2018-02-24T09:36:24.955Z,13.82
2018-02-24T09:38:53.794Z,14.18
2018-02-24T09:41:22.617Z,24.15
2018-02-24T09:43:51.450Z,15.20
2018-02-24T09:46:20.333Z,13.88
2018-02-24T09:48:49.142Z,14.80
2018-02-24T09:51:18.062Z,15.18
2018-02-24T09:53:46.932Z,15.50
2018-02-24T09:56:15.751Z,14.48
2018-02-24T09:58:44.652Z,14.27
2018-02-24T10:01:13.473Z,14.32
2018-02-24T10:03:42.290Z,14.38
2018-02-24T10:06:11.138Z,15.82
2018-02-24T10:08:39.955Z,14.75
2018-02-24T10:11:08.831Z,14.02
2018-02-24T10:13:37.641Z,12.60
2018-02-24T10:16:06.502Z,13.73
2018-02-24T10:18:35.357Z,13.77
2018-02-24T10:21:04.238Z,14.18
2018-02-24T10:23:33.074Z,14.82
2018-02-24T10:26:01.893Z,14.13
2018-02-24T10:28:30.732Z,14.05
2018-02-24T10:30:59.554Z,14.00
2018-02-24T10:33:28.397Z,15.68
2018-02-24T10:35:57.241Z,13.45
2018-02-24T10:38:26.783Z,15.40
2018-02-24T10:40:55.601Z,14.55
2018-02-24T10:43:24.434Z,15.00
2018-02-24T10:45:53.273Z,14.30
2018-02-24T10:48:22.127Z,13.35
2018-02-24T10:50:50.985Z,14.48
2018-02-24T10:53:19.795Z,14.48
2018-02-24T10:55:48.627Z,14.95
2018-02-24T10:58:17.465Z,15.10
2018-02-24T11:00:46.331Z,13.52
2018-02-24T11:03:15.168Z,13.23
2018-02-24T11:05:44.013Z,13.88
2018-02-24T11:08:12.830Z,14.10
2018-02-24T11:10:41.683Z,12.45
2018-02-24T11:13:10.509Z,12.02
2018-02-24T11:15:39.381Z,12.45
2018-02-24T11:18:08.206Z,12.52
2018-02-24T11:20:37.015Z,14.05
2018-02-24T11:23:05.871Z,11.48
2018-02-24T11:25:34.696Z,12.95
2018-02-24T11:28:03.600Z,12.77
2018-02-24T11:30:32.437Z,11.20
2018-02-24T11:33:01.330Z,12.00
2018-02-24T11:35:30.146Z,12.25
2018-02-24T11:37:58.984Z,12.25
2018-02-24T11:40:27.799Z,11.18
2018-02-24T11:42:56.658Z,11.90
2018-02-24T11:45:25.527Z,11.65
2018-02-24T11:47:54.360Z,10.68
2018-02-24T11:50:23.296Z,11.52
2018-02-24T11:52:52.165Z,12.32
2018-02-24T11:55:21.031Z,12.02
2018-02-24T11:57:49.867Z,12.32
2018-02-24T12:00:18.712Z,12.75
2018-02-24T12:02:47.549Z,11.55
2018-02-24T12:05:16.415Z,12.93
2018-02-24T12:07:45.263Z,13.40
2018-02-24T12:10:14.102Z,11.45
2018-02-24T12:12:42.971Z,11.75
2018-02-24T12:15:11.806Z,11.12
2018-02-24T12:17:40.690Z,12.50
2018-02-24T12:20:09.552Z,11.27
2018-02-24T12:22:38.379Z,13.57
2018-02-24T12:25:07.248Z,13.07
2018-02-24T12:27:36.123Z,11.70
2018-02-24T12:30:05.040Z,12.07
2018-02-24T12:32:33.938Z,12.20
2018-02-24T12:35:02.765Z,11.75
2018-02-24T12:37:31.585Z,12.45
2018-02-24T12:40:00.441Z,11.60
2018-02-24T12:42:29.278Z,10.70
2018-02-24T12:44:58.111Z,11.88
2018-02-24T12:47:27.000Z,10.90
2018-02-24T12:49:56.660Z,11.30
2018-02-24T12:52:24.701Z,11.38
2018-02-24T12:54:53.551Z,12.35
2018-02-24T12:57:22.483Z,10.75
2018-02-24T12:59:51.454Z,11.82
2018-02-24T13:02:21.271Z,13.60
2018-02-24T13:04:52.403Z,13.85
2018-02-24T13:07:21.240Z,13.07
2018-02-24T13:09:50.222Z,12.30
2018-02-24T13:12:19.045Z,11.33
2018-02-24T13:14:47.881Z,11.53
2018-02-24T13:17:16.736Z,10.90
2018-02-24T13:19:45.897Z,14.10
2018-02-24T13:22:14.758Z,11.40
2018-02-24T13:24:43.603Z,11.43
2018-02-24T13:27:12.522Z,11.73
2018-02-24T13:29:41.369Z,11.70
2018-02-24T13:32:10.285Z,11.20
2018-02-24T13:34:39.120Z,11.97
2018-02-24T13:37:07.978Z,14.00
2018-02-24T13:39:36.812Z,14.90
2018-02-24T13:42:05.630Z,12.50
2018-02-24T13:44:34.467Z,11.83
2018-02-24T13:47:03.322Z,11.57
2018-02-24T13:49:32.133Z,13.10
2018-02-24T13:52:00.996Z,12.30
2018-02-24T13:54:29.825Z,11.50
2018-02-24T13:56:58.723Z,14.87
2018-02-24T13:59:27.658Z,10.97
2018-02-24T14:01:56.581Z,14.30
2018-02-24T14:04:25.402Z,14.40
2018-02-24T14:06:54.261Z,15.40
2018-02-24T14:09:23.434Z,10.73
2018-02-24T14:11:52.293Z,13.33
2018-02-24T14:14:21.146Z,13.13
2018-02-24T14:16:49.993Z,13.50
2018-02-24T14:19:18.895Z,12.33
2018-02-24T14:21:47.717Z,12.03
2018-02-24T14:24:16.550Z,11.17
2018-02-24T14:26:45.471Z,12.17
2018-02-24T14:29:14.348Z,13.70
2018-02-24T14:31:43.177Z,13.93
2018-02-24T14:34:12.018Z,11.97
2018-02-24T14:36:40.910Z,11.50
2018-02-24T14:39:09.763Z,10.97
2018-02-24T14:41:38.626Z,12.67
2018-02-24T14:44:07.476Z,11.23
2018-02-24T14:46:36.337Z,10.00
2018-02-24T14:49:05.200Z,10.67
2018-02-24T14:51:34.070Z,12.07
2018-02-24T14:54:02.938Z,11.13
2018-02-24T14:56:31.761Z,10.53
2018-02-24T14:59:00.622Z,11.33
2018-02-24T15:01:29.439Z,10.33
2018-02-24T15:03:58.288Z,10.83
2018-02-24T15:06:27.114Z,12.97
2018-02-24T15:08:55.975Z,10.90
2018-02-24T15:11:24.810Z,11.70
2018-02-24T15:13:53.670Z,11.60
2018-02-24T15:16:22.504Z,11.30
2018-02-24T15:18:51.340Z,9.30
2018-02-24T15:21:20.192Z,10.60
2018-02-24T15:23:49.076Z,9.67
2018-02-24T15:26:17.962Z,10.33
2018-02-24T15:28:46.794Z,9.40
2018-02-24T15:31:15.664Z,9.50
2018-02-24T15:33:44.545Z,10.20
2018-02-24T15:36:13.393Z,8.70
2018-02-24T15:38:42.237Z,15.73
2018-02-24T15:41:11.082Z,9.00
2018-02-24T15:43:39.931Z,9.37
2018-02-24T15:46:08.800Z,8.93
2018-02-24T15:48:37.657Z,10.07
2018-02-24T15:51:06.686Z,10.03
2018-02-24T15:53:35.570Z,9.13
2018-02-24T15:56:04.404Z,9.87
2018-02-24T15:58:33.259Z,9.90
2018-02-24T16:01:02.203Z,8.90
2018-02-24T16:03:31.088Z,8.73
2018-02-24T16:06:00.027Z,10.53
2018-02-24T16:08:28.906Z,9.93
2018-02-24T16:10:57.729Z,10.77
2018-02-24T16:13:26.595Z,9.57
2018-02-24T16:15:55.454Z,9.80
2018-02-24T16:18:24.315Z,10.80
2018-02-24T16:20:53.152Z,11.93
2018-02-24T16:23:22.772Z,10.20
2018-02-24T16:25:51.628Z,9.70
2018-02-24T16:28:20.439Z,9.15
2018-02-24T16:30:49.317Z,10.35
2018-02-24T16:33:18.161Z,9.07
2018-02-24T16:35:47.051Z,9.60
2018-02-24T16:38:15.865Z,9.85
2018-02-24T16:40:44.742Z,11.02
2018-02-24T16:43:13.586Z,8.82
2018-02-24T16:45:42.641Z,13.15
2018-02-24T16:48:11.494Z,20.08
2018-02-24T16:50:40.334Z,11.73
2018-02-24T16:53:09.168Z,11.18
2018-02-24T16:55:37.991Z,14.13
2018-02-24T16:58:06.860Z,11.38
2018-02-24T17:00:36.345Z,11.60
2018-02-24T17:03:05.231Z,10.88
2018-02-24T17:05:34.110Z,11.90
2018-02-24T17:08:03.007Z,15.57
2018-02-24T17:10:31.847Z,10.90
2018-02-24T17:13:00.714Z,17.20
2018-02-24T17:15:29.573Z,10.30
2018-02-24T17:17:58.408Z,14.35
2018-02-24T17:20:27.239Z,9.77
2018-02-24T17:22:56.062Z,14.63
2018-02-24T17:25:24.923Z,10.25
2018-02-24T17:27:53.772Z,9.32
2018-02-24T17:30:22.660Z,8.65
2018-02-24T17:32:51.531Z,8.82
2018-02-24T17:35:29.394Z,13.45
2018-02-24T17:37:58.206Z,7.30
2018-02-24T17:40:29.536Z,8.60
2018-02-24T17:45:48.101Z,8.25
2018-02-24T17:48:24.067Z,8.77
2018-02-24T17:59:21.898Z,18.60
2018-02-24T18:01:58.418Z,7.22
2018-02-24T18:04:34.500Z,7.10
2018-02-24T18:07:03.357Z,7.35
2018-02-24T18:09:32.280Z,6.82
2018-02-24T18:12:01.113Z,6.70
2018-02-24T18:14:29.950Z,6.70
2018-02-24T18:16:58.845Z,6.95
2018-02-24T18:19:27.791Z,7.25
2018-02-24T18:21:56.632Z,6.45
2018-02-24T18:24:25.447Z,6.90
2018-02-24T18:26:54.347Z,6.85
2018-02-24T18:29:23.189Z,6.32
2018-02-24T18:31:52.078Z,7.05
2018-02-24T18:34:20.906Z,9.00
2018-02-24T18:36:49.784Z,7.82
2018-02-24T18:39:18.570Z,6.55
2018-02-24T18:41:47.469Z,6.70
2018-02-24T18:44:16.292Z,6.28
2018-02-24T18:46:45.130Z,6.30
2018-02-24T18:49:13.974Z,7.05
2018-02-24T18:51:42.787Z,8.45
2018-02-24T18:54:11.655Z,6.80
2018-02-24T18:56:40.478Z,7.05
2018-02-24T18:59:09.357Z,7.15
2018-02-24T19:01:38.192Z,6.37
2018-02-24T19:04:07.050Z,9.07
2018-02-24T19:06:35.887Z,8.02
2018-02-24T19:09:04.733Z,7.12
2018-02-24T19:11:33.612Z,8.93
2018-02-24T19:14:02.445Z,9.98
2018-02-24T19:16:31.317Z,8.35
2018-02-24T19:19:00.170Z,8.23
2018-02-24T19:21:29.011Z,7.87
2018-02-24T19:23:57.836Z,7.80
2018-02-24T19:26:26.712Z,7.18
2018-02-24T19:28:55.547Z,7.90
2018-02-24T19:31:24.650Z,7.72
2018-02-24T19:33:53.496Z,9.75
2018-02-24T19:36:22.315Z,7.78
2018-02-24T19:38:51.236Z,7.75
2018-02-24T19:41:20.134Z,6.82
2018-02-24T19:43:49.125Z,6.60
2018-02-24T19:46:17.970Z,6.82
2018-02-24T19:48:46.859Z,7.12
2018-02-24T19:51:15.780Z,6.90
2018-02-24T19:53:44.593Z,7.32
2018-02-24T19:56:13.456Z,6.12
2018-02-24T19:58:42.372Z,7.12
2018-02-24T20:01:11.244Z,6.90
2018-02-24T20:03:40.108Z,7.62
2018-02-24T20:06:09.020Z,6.37
2018-02-24T20:08:37.914Z,6.28
2018-02-24T20:11:06.830Z,7.65
2018-02-24T20:13:35.712Z,15.40
2018-02-24T20:16:04.535Z,13.23
2018-02-24T20:18:33.401Z,6.78
2018-02-24T20:21:02.266Z,9.80
2018-02-24T20:23:31.112Z,10.80
2018-02-24T20:25:59.968Z,11.40
2018-02-24T20:28:28.942Z,9.82
2018-02-24T20:30:57.782Z,10.45
2018-02-24T20:33:26.612Z,8.38
2018-02-24T20:35:55.488Z,8.23
2018-02-24T20:38:24.338Z,7.15
2018-02-24T20:40:53.196Z,6.55
2018-02-24T20:43:22.051Z,8.60
2018-02-24T20:45:50.869Z,6.35
2018-02-24T20:48:19.781Z,6.05
2018-02-24T20:50:48.615Z,6.55
2018-02-24T20:53:17.520Z,6.43
2018-02-24T20:55:46.324Z,6.37
2018-02-24T20:58:15.250Z,6.00
2018-02-24T21:00:44.097Z,5.78
2018-02-24T21:03:12.970Z,5.90
2018-02-24T21:05:41.792Z,6.37
2018-02-24T21:08:10.618Z,6.72
2018-02-24T21:10:39.500Z,6.47
2018-02-24T21:13:08.329Z,5.68
2018-02-24T21:15:37.174Z,5.70
2018-02-24T21:18:06.002Z,5.95
2018-02-24T21:20:34.931Z,7.50
2018-02-24T21:23:03.742Z,6.75
2018-02-24T21:25:32.631Z,5.90
2018-02-24T21:28:01.463Z,7.20
2018-02-24T21:30:30.326Z,6.15
2018-02-24T21:32:59.194Z,6.37
2018-02-24T21:35:28.018Z,6.00
2018-02-24T21:37:56.845Z,5.82
2018-02-24T21:40:25.703Z,6.65
2018-02-24T21:42:54.525Z,7.07
2018-02-24T21:45:23.378Z,9.70
2018-02-24T21:47:52.238Z,11.93
2018-02-24T21:50:21.068Z,6.62
2018-02-24T21:52:49.962Z,6.47
2018-02-24T21:55:18.833Z,6.28
2018-02-24T21:57:47.676Z,6.25
2018-02-24T22:00:16.507Z,6.70
2018-02-24T22:02:45.397Z,6.70
2018-02-24T22:05:14.325Z,6.15
2018-02-24T22:07:43.160Z,5.90
2018-02-24T22:10:11.983Z,7.32
2018-02-24T22:12:40.950Z,4.82
2018-02-24T22:15:09.749Z,5.30
2018-02-24T22:17:38.630Z,6.00
2018-02-24T22:20:07.467Z,5.80
2018-02-24T22:22:36.308Z,5.93
2018-02-24T22:25:05.141Z,6.05
2018-02-24T22:27:34.018Z,5.60
2018-02-24T22:30:02.844Z,7.53
2018-02-24T22:32:31.678Z,7.85
2018-02-24T22:35:00.518Z,7.93
2018-02-24T22:37:29.352Z,5.70
2018-02-24T22:39:58.227Z,5.20
2018-02-24T22:42:27.131Z,8.60
2018-02-24T22:44:55.966Z,6.20
2018-02-24T22:47:25.367Z,5.07
2018-02-24T22:49:54.224Z,5.57
2018-02-24T22:52:23.044Z,5.45
2018-02-24T22:54:51.870Z,9.10
2018-02-24T22:57:20.726Z,18.42
2018-02-24T22:59:49.558Z,7.35
2018-02-24T23:02:18.409Z,12.15
2018-02-24T23:04:47.226Z,8.82
2018-02-24T23:07:16.058Z,6.78
2018-02-24T23:09:44.884Z,9.98
2018-02-24T23:12:13.689Z,9.25
2018-02-24T23:14:42.589Z,6.60
2018-02-24T23:17:11.413Z,9.32
2018-02-24T23:19:40.284Z,13.82
2018-02-24T23:22:09.105Z,9.30
2018-02-24T23:24:37.977Z,12.37
2018-02-24T23:27:06.784Z,8.02
2018-02-24T23:29:35.617Z,7.72
2018-02-24T23:32:04.425Z,7.80
2018-02-24T23:34:33.358Z,7.72
2018-02-24T23:37:02.186Z,12.63
2018-02-24T23:39:31.029Z,14.52
2018-02-24T23:41:59.890Z,6.35
2018-02-24T23:44:28.778Z,6.90
2018-02-24T23:46:58.172Z,10.00
2018-02-24T23:49:26.988Z,8.25
2018-02-24T23:51:55.846Z,6.95
2018-02-24T23:54:24.666Z,8.75
2018-02-24T23:56:53.513Z,7.30
2018-02-24T23:59:22.341Z,6.82
